createdAt,value
2024-05-09T00:04:43.873Z,101037.97
2024-05-09T00:09:49.868Z,101037.78
2024-05-09T00:14:55.985Z,101030.13
2024-05-09T00:20:01.927Z,101049.69
2024-05-09T00:25:09.542Z,101063.34
2024-05-09T00:30:24.179Z,101055.59
2024-05-09T00:35:40.418Z,101040.13
2024-05-09T00:40:46.623Z,101039.47
2024-05-09T00:45:54.349Z,101038.56
2024-05-09T00:51:01.207Z,101036.78
2024-05-09T00:56:08.886Z,101038.56
2024-05-09T01:01:16.508Z,101036.81
2024-05-09T01:06:22.947Z,101040.44
2024-05-09T01:11:41.620Z,101029.09
2024-05-09T01:16:47.008Z,101043.88
2024-05-09T01:21:52.778Z,101054.50
2024-05-09T01:26:58.642Z,101045.66
2024-05-09T01:32:05.468Z,101048.66
2024-05-09T01:37:11.668Z,101014.22
2024-05-09T01:42:18.018Z,101060.34
2024-05-09T01:47:24.010Z,101054.13
2024-05-09T01:52:30.081Z,101049.06
2024-05-09T01:57:36.065Z,101052.56
2024-05-09T02:02:46.194Z,101060.09
2024-05-09T02:07:52.207Z,101063.91
2024-05-09T02:12:57.996Z,101046.72
2024-05-09T02:18:03.819Z,101049.66
2024-05-09T02:23:10.474Z,101058.28
2024-05-09T02:28:16.086Z,101056.88
2024-05-09T02:33:22.364Z,101060.91
2024-05-09T02:38:28.322Z,101063.25
2024-05-09T02:43:34.025Z,101065.13
2024-05-09T02:48:39.889Z,101065.88
2024-05-09T02:53:45.721Z,101066.53
2024-05-09T02:58:51.649Z,101068.00
2024-05-09T03:03:57.871Z,101050.78
2024-05-09T03:09:05.511Z,101044.94
2024-05-09T03:14:11.126Z,101055.63
2024-05-09T03:19:17.714Z,101063.28
2024-05-09T03:24:23.670Z,101072.06
2024-05-09T03:29:29.481Z,101076.94
2024-05-09T03:34:35.510Z,101089.97
2024-05-09T03:39:41.328Z,101081.81
2024-05-09T03:44:47.858Z,101058.09
2024-05-09T03:49:53.609Z,101073.03
2024-05-09T03:54:59.522Z,101080.34
2024-05-09T04:00:12.004Z,101083.81
2024-05-09T04:05:26.907Z,101093.13
2024-05-09T04:10:34.715Z,101094.59
2024-05-09T04:15:41.650Z,101094.78
2024-05-09T04:20:47.827Z,101108.00
2024-05-09T04:25:53.735Z,101106.63
2024-05-09T04:30:59.710Z,101104.16
2024-05-09T04:36:05.674Z,101102.56
2024-05-09T04:41:11.484Z,101114.13
2024-05-09T04:46:17.403Z,101118.59
2024-05-09T04:51:23.292Z,101123.50
2024-05-09T04:56:29.410Z,101125.53
2024-05-09T05:01:35.175Z,101122.28
2024-05-09T05:06:40.905Z,101134.94
2024-05-09T05:11:46.778Z,101122.66
2024-05-09T05:16:52.561Z,101132.84
2024-05-09T05:21:58.608Z,101145.91
2024-05-09T05:27:04.493Z,101155.75
2024-05-09T05:32:10.694Z,101180.13
2024-05-09T05:37:17.011Z,101207.34
2024-05-09T05:42:22.677Z,101211.19
2024-05-09T05:47:28.544Z,101214.19
2024-05-09T05:52:34.431Z,101183.44
2024-05-09T05:57:40.361Z,101224.00
2024-05-09T06:02:46.049Z,101228.16
2024-05-09T06:07:51.953Z,101214.03
2024-05-09T06:12:57.774Z,101218.03
2024-05-09T06:18:07.090Z,101214.91
2024-05-09T06:23:13.674Z,101211.56
2024-05-09T06:28:19.665Z,101167.28
2024-05-09T06:33:26.084Z,101213.16
2024-05-09T06:38:33.562Z,101209.22
2024-05-09T06:43:39.695Z,101221.25
2024-05-09T06:48:49.579Z,101209.53
2024-05-09T06:53:55.607Z,101214.97
2024-05-09T06:59:01.439Z,101201.66
2024-05-09T07:04:07.388Z,101181.53
2024-05-09T07:09:13.497Z,101181.09
2024-05-09T07:14:19.454Z,101186.41
2024-05-09T07:19:25.506Z,101175.56
2024-05-09T07:24:31.384Z,101197.22
2024-05-09T07:29:39.388Z,101188.47
2024-05-09T07:34:45.349Z,101176.41
2024-05-09T07:39:51.138Z,101189.81
2024-05-09T07:45:06.088Z,101197.09
2024-05-09T07:55:30.943Z,101175.88
2024-05-09T08:00:38.814Z,101191.00
2024-05-09T08:05:44.958Z,101194.25
2024-05-09T08:10:51.096Z,101204.47
2024-05-09T08:15:57.151Z,101187.81
2024-05-09T08:21:03.325Z,101210.16
2024-05-09T08:26:09.089Z,101184.59
2024-05-09T08:31:15.069Z,101208.03
2024-05-09T08:36:21.376Z,101204.06
2024-05-09T08:41:28.861Z,101208.38
2024-05-09T08:46:36.087Z,101216.56
2024-05-09T08:51:42.208Z,101218.72
2024-05-09T08:56:49.111Z,101228.13
2024-05-09T09:01:55.654Z,101213.16
2024-05-09T09:07:03.554Z,101224.56
2024-05-09T09:12:10.628Z,101223.50
2024-05-09T09:17:16.806Z,101223.25
2024-05-09T09:22:22.770Z,101207.00
2024-05-09T09:27:28.406Z,101206.72
2024-05-09T09:32:34.311Z,101229.22
2024-05-09T09:37:40.265Z,101233.91
2024-05-09T09:42:59.678Z,101235.06
2024-05-09T09:48:07.119Z,101206.59
2024-05-09T09:53:14.762Z,101225.19
2024-05-09T09:58:21.307Z,101218.84
2024-05-09T10:03:28.455Z,101216.94
2024-05-09T10:08:35.481Z,101228.84
2024-05-09T10:13:42.514Z,101229.88
2024-05-09T10:18:48.591Z,101227.13
2024-05-09T10:24:04.768Z,101229.97
2024-05-09T10:29:14.969Z,101224.19
2024-05-09T10:34:22.780Z,101240.41
2024-05-09T10:39:38.414Z,101218.19
2024-05-09T10:44:44.081Z,101233.91
2024-05-09T10:49:50.663Z,101244.13
2024-05-09T10:54:56.670Z,101226.03
2024-05-09T11:00:02.280Z,101234.84
2024-05-09T11:05:10.840Z,101227.94
2024-05-09T11:15:24.560Z,101244.66
2024-05-09T11:20:39.266Z,101242.41
2024-05-09T11:25:51.936Z,101249.75
2024-05-09T11:31:09.866Z,101254.78
2024-05-09T11:36:17.746Z,101251.53
2024-05-09T11:41:24.532Z,101242.59
2024-05-09T11:46:30.369Z,101255.16
2024-05-09T11:51:36.289Z,101272.59
2024-05-09T11:56:42.272Z,101269.47
2024-05-09T12:01:48.292Z,101270.91
2024-05-09T12:06:53.974Z,101272.22
2024-05-09T12:11:59.827Z,101271.59
2024-05-09T12:17:06.331Z,101276.69
2024-05-09T12:22:12.334Z,101286.91
2024-05-09T12:27:18.224Z,101285.56
2024-05-09T12:32:24.155Z,101285.03
2024-05-09T12:37:30.205Z,101288.06
2024-05-09T12:42:36.072Z,101285.66
2024-05-09T12:47:41.887Z,101278.22
2024-05-09T12:52:48.018Z,101286.00
2024-05-09T12:57:54.202Z,101282.84
2024-05-09T13:03:00.342Z,101287.25
2024-05-09T13:08:07.094Z,101280.38
2024-05-09T13:13:13.426Z,101280.50
2024-05-09T13:18:19.656Z,101280.56
2024-05-09T13:23:25.682Z,101289.34
2024-05-09T13:28:32.923Z,101279.03
2024-05-09T13:33:38.746Z,101296.75
2024-05-09T13:38:44.818Z,101289.72
2024-05-09T13:43:50.814Z,101299.31
2024-05-09T13:48:56.401Z,101293.00
2024-05-09T13:54:02.181Z,101300.72
2024-05-09T13:59:08.685Z,101300.53
2024-05-09T14:04:14.761Z,101301.16
2024-05-09T14:09:20.776Z,101307.41
2024-05-09T14:14:27.183Z,101302.00
2024-05-09T14:19:32.894Z,101304.00
2024-05-09T14:24:38.668Z,101298.16
2024-05-09T14:29:44.679Z,101289.06
2024-05-09T14:34:50.849Z,101298.13
2024-05-09T14:39:56.634Z,101301.78
2024-05-09T14:45:02.840Z,101303.63
2024-05-09T14:50:16.858Z,101317.56
2024-05-09T14:55:31.522Z,101309.66
2024-05-09T15:00:46.613Z,101310.75
2024-05-09T15:05:57.865Z,101316.47
2024-05-09T15:11:03.820Z,101316.63
2024-05-09T15:16:09.655Z,101307.94
2024-05-09T15:21:15.765Z,101315.16
2024-05-09T15:26:21.679Z,101319.13
2024-05-09T15:31:27.505Z,101320.34
2024-05-09T15:36:33.809Z,101329.03
2024-05-09T15:41:39.690Z,101333.03
2024-05-09T15:46:45.329Z,101334.16
2024-05-09T15:51:51.162Z,101337.28
2024-05-09T15:56:56.716Z,101343.22
2024-05-09T16:02:02.820Z,101338.63
2024-05-09T16:07:08.813Z,101333.84
2024-05-09T16:12:14.691Z,101347.38
2024-05-09T16:17:20.647Z,101352.47
2024-05-09T16:22:26.704Z,101343.41
2024-05-09T16:27:32.829Z,101351.09
2024-05-09T16:32:42.103Z,101354.94
2024-05-09T16:37:48.590Z,101359.97
2024-05-09T16:42:54.698Z,101363.63
2024-05-09T16:48:01.892Z,101363.88
2024-05-09T16:53:08.202Z,101383.72
2024-05-09T16:58:14.156Z,101392.88
2024-05-09T17:03:21.786Z,101385.00
2024-05-09T17:08:27.758Z,101404.16
2024-05-09T17:13:33.628Z,101407.75
2024-05-09T17:18:40.368Z,101414.59
2024-05-09T17:23:46.437Z,101417.13
2024-05-09T17:28:52.557Z,101417.28
2024-05-09T17:33:59.432Z,101425.19
2024-05-09T17:39:06.279Z,101434.25
2024-05-09T17:44:12.985Z,101434.72
2024-05-09T17:49:18.993Z,101430.72
2024-05-09T17:54:25.039Z,101440.59
2024-05-09T17:59:30.786Z,101434.56
2024-05-09T18:04:36.712Z,101439.94
2024-05-09T18:09:42.699Z,101433.28
2024-05-09T18:14:48.674Z,101450.25
2024-05-09T18:19:54.316Z,101452.19
2024-05-09T18:25:00.092Z,101454.50
2024-05-09T18:30:09.470Z,101465.25
2024-05-09T18:35:18.567Z,101470.53
2024-05-09T18:40:32.517Z,101474.44
2024-05-09T18:45:43.937Z,101478.44
2024-05-09T18:50:53.301Z,101487.81
2024-05-09T18:55:59.249Z,101503.66
2024-05-09T19:01:05.651Z,101501.34
2024-05-09T19:06:12.262Z,101485.47
2024-05-09T19:11:18.488Z,101511.53
2024-05-09T19:16:24.995Z,101510.97
2024-05-09T19:21:31.529Z,101512.63
2024-05-09T19:26:37.948Z,101519.75
2024-05-09T19:31:43.783Z,101507.66
2024-05-09T19:36:49.644Z,101527.69
2024-05-09T19:41:55.350Z,101530.97
2024-05-09T19:47:00.919Z,101534.28
2024-05-09T19:52:07.190Z,101546.78
2024-05-09T19:57:15.168Z,101540.19
2024-05-09T20:02:21.410Z,101550.59
2024-05-09T20:07:27.237Z,101557.25
2024-05-09T20:12:33.238Z,101550.72
2024-05-09T20:17:39.675Z,101566.66
2024-05-09T20:22:45.772Z,101524.94
2024-05-09T20:27:51.976Z,101565.59
2024-05-09T20:32:58.513Z,101570.09
2024-05-09T20:38:04.925Z,101578.75
2024-05-09T20:43:11.391Z,101572.56
2024-05-09T20:48:17.487Z,101581.19
2024-05-09T20:53:23.525Z,101581.16
2024-05-09T20:58:30.885Z,101586.53
2024-05-09T21:03:38.760Z,101589.97
2024-05-09T21:08:44.813Z,101598.66
2024-05-09T21:13:52.143Z,101593.69
2024-05-09T21:18:58.673Z,101601.97
2024-05-09T21:24:04.926Z,101600.84
2024-05-09T21:29:11.167Z,101601.13
2024-05-09T21:34:17.144Z,101598.66
2024-05-09T21:39:25.434Z,101606.16
2024-05-09T21:44:31.509Z,101610.59
2024-05-09T21:49:37.524Z,101609.00
2024-05-09T21:54:43.639Z,101579.22
2024-05-09T21:59:49.703Z,101612.91
2024-05-09T22:04:55.995Z,101623.34
2024-05-09T22:10:01.982Z,101628.09
2024-05-09T22:15:08.765Z,101633.75
2024-05-09T22:20:22.095Z,101627.16
2024-05-09T22:25:39.067Z,101625.72
2024-05-09T22:30:47.248Z,101626.59
2024-05-09T22:35:54.029Z,101628.50
2024-05-09T22:40:59.741Z,101635.47
2024-05-09T22:46:05.961Z,101617.88
2024-05-09T22:51:13.474Z,101640.22
2024-05-09T22:56:29.462Z,101641.16
2024-05-09T23:01:35.727Z,101639.66
2024-05-09T23:06:42.329Z,101642.09
2024-05-09T23:11:48.341Z,101638.19
2024-05-09T23:16:54.392Z,101631.84
2024-05-09T23:22:00.334Z,101636.41
2024-05-09T23:27:06.231Z,101644.47
2024-05-09T23:32:12.361Z,101645.16
2024-05-09T23:37:18.652Z,101651.13
2024-05-09T23:42:24.689Z,101636.47
2024-05-09T23:47:31.013Z,101630.69
2024-05-09T23:52:37.153Z,101640.56
2024-05-09T23:57:43.307Z,101636.66
